Time;durP1;ratioP1;P1;durP2;ratioP2;P2;SDS_P1;SDS_P2;PMS_P1;PMS_P2;Temp;Humidity;BMP_temperature;BMP_pressure;BME280_temperature;BME280_humidity;BME280_pressure;Samples;Min_cycle;Max_cycle;Signal;HPM_P1;HPM_P2
2022/02/27 11:42:02;;;;;;;5.20;4.90;;;;;;;;;;2697248;35;20565;-44
2022/02/27 11:44:32;;;;;;;4.90;2.40;;;;;;;;;;2676308;36;20543;-59
2022/02/27 11:50:26;;;;;;;36.47;17.20;;;24.60;19.90;;;;;;2564721;36;5013445;-61
2022/02/27 12:01:03;;;;;;;5.40;4.80;;;22.50;1.00;;;;;;2618668;38;20880;-80
2022/02/27 12:03:29;;;;;;;6.27;5.77;;;17.90;1.00;;;;;;2690502;36;20493;-78
2022/02/27 12:05:59;;;;;;;5.03;4.73;;;15.30;1.00;;;;;;2618781;54;20465;-79
2022/02/27 12:08:41;;;;;;;14.47;7.00;;;14.20;1.00;;;;;;2673565;36;20212;-79
2022/02/27 12:11:29;;;;;;;6.30;4.93;;;12.70;1.00;;;;;;2616329;46;20434;-79
2022/02/27 12:14:00;;;;;;;6.40;4.87;;;12.40;1.00;;;;;;2616534;54;20460;-79
2022/02/27 12:16:37;;;;;;;7.23;5.40;;;12.70;1.00;;;;;;2616817;46;20438;-79
2022/02/27 12:19:04;;;;;;;5.50;5.20;;;12.70;1.00;;;;;;2618075;47;20451;-79
2022/02/27 12:21:39;;;;;;;8.47;7.97;;;12.70;1.00;;;;;;2617972;46;20423;-78
2022/02/27 12:24:14;;;;;;;5.93;4.47;;;13.00;1.00;;;;;;2617534;54;20417;-79
2022/02/27 12:26:47;;;;;;;5.03;3.90;;;12.70;1.00;;;;;;2617564;46;20417;-79
2022/02/27 12:29:29;;;;;;;10.43;3.63;;;12.80;1.00;;;;;;2618201;54;20417;-79
2022/02/27 12:32:04;;;;;;;4.30;3.90;;;12.90;1.00;;;;;;2617468;46;20429;-79
2022/02/27 12:34:32;;;;;;;4.33;3.93;;;12.70;1.00;;;;;;2617379;47;20413;-79
2022/02/27 12:37:00;;;;;;;16.03;4.63;;;13.00;1.00;;;;;;2618897;54;20407;-80
2022/02/27 12:39:31;;;;;;;18.03;6.80;;;13.20;1.00;;;;;;2618350;54;20532;-78
2022/02/27 12:43:00;;;;;;;6.50;6.03;;;12.40;1.00;;;;;;2616542;54;20480;-77
2022/02/27 12:45:33;;;;;;;5.00;4.60;;;12.50;1.00;;;;;;2617268;54;20438;-76
2022/02/27 12:48:16;;;;;;;6.43;5.20;;;12.70;1.00;;;;;;2616685;47;20426;-78
2022/02/27 12:50:48;;;;;;;7.00;6.40;;;12.60;1.00;;;;;;2618784;46;20453;-78
2022/02/27 12:53:17;;;;;;;5.40;5.00;;;12.50;1.00;;;;;;2618392;38;20900;-78
2022/02/27 12:55:43;;;;;;;5.87;5.47;;;12.30;1.00;;;;;;2618068;46;20981;-78
2022/02/27 12:58:12;;;;;;;5.73;5.43;;;12.90;1.00;;;;;;2619585;38;20792;-77
2022/02/27 13:00:42;;;;;;;6.93;6.43;;;13.10;1.00;;;;;;2618634;54;20472;-77
2022/02/27 13:03:13;;;;;;;6.80;6.50;;;13.30;1.00;;;;;;2617630;47;20397;-77
2022/02/27 13:05:43;;;;;;;6.47;5.83;;;12.90;1.00;;;;;;2618479;54;20474;-78
2022/02/27 13:08:10;;;;;;;3.97;3.73;;;12.90;1.00;;;;;;2618800;54;20404;-78
2022/02/27 13:10:39;;;;;;;6.30;5.80;;;13.00;1.00;;;;;;2657731;36;20464;-78
2022/02/27 13:13:12;;;;;;;5.30;4.77;;;12.90;1.00;;;;;;2616880;54;20462;-78
2022/02/27 13:15:48;;;;;;;7.77;5.50;;;12.60;1.00;;;;;;2616032;46;20427;-79
2022/02/27 13:18:17;;;;;;;4.63;4.33;;;12.10;1.00;;;;;;2619291;54;20417;-79
2022/02/27 13:20:43;;;;;;;6.63;6.17;;;12.20;1.00;;;;;;2619090;54;20538;-79
2022/02/27 13:23:09;;;;;;;6.33;5.83;;;12.50;1.00;;;;;;2619287;46;20419;-77
2022/02/27 13:25:35;;;;;;;6.73;6.17;;;12.70;1.00;;;;;;2618734;54;20418;-79
2022/02/27 13:28:01;;;;;;;6.07;5.67;;;12.60;1.00;;;;;;2617759;54;20221;-79
2022/02/27 13:30:30;;;;;;;5.43;5.13;;;12.30;1.00;;;;;;2617696;54;20406;-79
2022/02/27 13:33:00;;;;;;;7.13;6.43;;;12.40;1.00;;;;;;2616618;54;20403;-79
2022/02/27 13:35:38;;;;;;;9.70;6.00;;;12.40;1.00;;;;;;2619095;54;20441;-78
2022/02/27 13:38:09;;;;;;;6.80;6.40;;;12.60;1.00;;;;;;2616833;46;20422;-80
2022/02/27 13:40:40;;;;;;;6.63;6.20;;;12.90;1.00;;;;;;2622617;46;20399;-82
2022/02/27 13:43:18;;;;;;;7.93;6.87;;;13.00;1.00;;;;;;2623520;38;20835;-82
2022/02/27 13:45:46;;;;;;;10.20;6.17;;;12.60;1.00;;;;;;2623143;46;20405;-81
2022/02/27 13:48:15;;;;;;;6.73;6.10;;;12.90;1.00;;;;;;2623137;54;20411;-81
2022/02/27 13:50:46;;;;;;;7.50;5.93;;;12.90;1.00;;;;;;2623188;46;20394;-82
2022/02/27 13:53:18;;;;;;;7.20;6.80;;;12.90;1.00;;;;;;2621340;46;20498;-82
2022/02/27 13:55:48;;;;;;;5.10;4.60;;;12.60;1.00;;;;;;2619973;54;20398;-82
2022/02/27 13:58:19;;;;;;;11.00;5.23;;;12.40;1.00;;;;;;2619813;47;20415;-81
2022/02/27 14:01:03;;;;;;;5.97;5.37;;;12.30;1.00;;;;;;2619425;47;20920;-82
2022/02/27 14:03:33;;;;;;;5.43;5.03;;;12.30;1.00;;;;;;2619669;47;20462;-80
2022/02/27 14:06:03;;;;;;;7.00;6.00;;;12.50;1.00;;;;;;2619757;47;20497;-82
2022/02/27 14:08:35;;;;;;;5.53;5.23;;;12.50;1.00;;;;;;2619417;47;20399;-83
2022/02/27 14:11:16;;;;;;;5.70;5.30;;;12.80;1.00;;;;;;2619992;39;20764;-82
2022/02/27 14:13:54;;;;;;;5.53;5.10;;;12.60;1.00;;;;;;2619918;39;20792;-81
2022/02/27 14:16:29;;;;;;;6.27;5.80;;;13.10;1.00;;;;;;2619464;47;20406;-82
2022/02/27 14:18:59;;;;;;;6.83;6.17;;;12.80;1.00;;;;;;2619972;54;20404;-81
2022/02/27 14:21:33;;;;;;;6.43;5.80;;;12.80;1.00;;;;;;2619558;47;20533;-81
2022/02/27 14:24:01;;;;;;;5.70;4.43;;;12.80;1.00;;;;;;2619894;54;20384;-81
2022/02/27 14:26:36;;;;;;;5.63;5.10;;;12.80;1.00;;;;;;2619576;54;20381;-81
2022/02/27 14:29:11;;;;;;;5.50;5.10;;;12.70;1.00;;;;;;2619919;54;20387;-81
2022/02/27 14:31:49;;;;;;;5.50;5.00;;;12.80;1.00;;;;;;2619740;39;20742;-82
2022/02/27 14:34:21;;;;;;;4.50;4.20;;;12.80;1.00;;;;;;2619335;46;20431;-81
2022/02/27 14:36:49;;;;;;;4.97;4.67;;;12.70;1.00;;;;;;2618827;46;20426;-81
2022/02/27 14:39:18;;;;;;;6.10;5.03;;;12.40;1.00;;;;;;2619660;54;20679;-80
2022/02/27 14:41:46;;;;;;;6.00;4.80;;;12.40;1.00;;;;;;2619208;47;20430;-81
2022/02/27 14:44:12;;;;;;;7.87;5.10;;;12.80;1.00;;;;;;2619303;46;20379;-81
2022/02/27 14:46:39;;;;;;;5.87;4.93;;;;;;;;;;2618936;47;20455;-82
2022/02/27 14:49:07;;;;;;;4.90;4.50;;;12.90;1.00;;;;;;2619060;46;20465;-80
2022/02/27 14:51:38;;;;;;;5.00;4.40;;;12.90;1.00;;;;;;2619207;54;20367;-81
2022/02/27 14:54:06;;;;;;;4.93;4.30;;;13.00;1.00;;;;;;2619217;47;20398;-80
2022/02/27 14:56:32;;;;;;;4.50;4.10;;;12.50;1.00;;;;;;2619327;54;20926;-81
2022/02/27 14:58:58;;;;;;;4.73;4.33;;;12.90;1.00;;;;;;2619682;46;20397;-80
2022/02/27 15:01:26;;;;;;;4.97;4.10;;;12.40;1.00;;;;;;2619659;47;20434;-81
2022/02/27 15:03:51;;;;;;;4.43;4.07;;;12.30;1.00;;;;;;2620076;54;20721;-81
2022/02/27 15:06:17;;;;;;;5.03;4.53;;;12.20;1.00;;;;;;2619671;47;20490;-83
2022/02/27 15:08:43;;;;;;;6.37;4.40;;;12.50;1.00;;;;;;2621230;47;20236;-82
2022/02/27 15:11:10;;;;;;;5.73;3.60;;;12.50;1.00;;;;;;2620252;54;20391;-80
2022/02/27 15:13:36;;;;;;;4.33;4.03;;;12.00;1.00;;;;;;2622389;46;20143;-80
2022/02/27 15:16:26;;;;;;;8.67;4.53;;;12.20;1.00;;;;;;2620275;47;20984;-80
2022/02/27 15:18:55;;;;;;;4.47;4.10;;;12.20;1.00;;;;;;2618655;54;20386;-81
2022/02/27 15:21:21;;;;;;;4.03;3.73;;;12.10;1.00;;;;;;2618566;47;20417;-81
2022/02/27 15:23:48;;;;;;;4.70;4.30;;;12.00;1.00;;;;;;2618682;54;20473;-81
2022/02/27 15:26:15;;;;;;;4.20;3.90;;;12.10;1.00;;;;;;2619064;47;20418;-80
2022/02/27 15:28:41;;;;;;;7.50;3.83;;;12.30;1.00;;;;;;2620011;54;20380;-81
2022/02/27 15:31:07;;;;;;;4.10;3.73;;;12.30;1.00;;;;;;2619497;46;20997;-81
2022/02/27 15:33:33;;;;;;;4.33;4.03;;;12.50;1.00;;;;;;2625850;47;20398;-80
2022/02/27 15:36:00;;;;;;;4.83;3.60;;;12.30;1.00;;;;;;2630992;39;20872;-81
2022/02/27 15:38:27;;;;;;;4.70;4.30;;;;;;;;;;2629947;54;20450;-81
2022/02/27 15:40:53;;;;;;;3.90;3.20;;;12.70;1.00;;;;;;2628342;54;20934;-80
2022/02/27 15:43:19;;;;;;;4.20;3.80;;;;;;;;;;2628102;47;20434;-81
2022/02/27 15:45:47;;;;;;;4.67;4.27;;;11.90;1.00;;;;;;2628149;54;20441;-81
2022/02/27 15:48:13;;;;;;;5.63;4.13;;;11.60;1.00;;;;;;2628592;47;20387;-80
2022/02/27 15:50:39;;;;;;;3.67;3.43;;;11.80;1.00;;;;;;2623652;39;20931;-80
2022/02/27 15:53:05;;;;;;;7.10;4.10;;;11.80;1.00;;;;;;2618551;47;20146;-81
2022/02/27 15:55:31;;;;;;;3.33;2.87;;;11.90;1.00;;;;;;2618050;46;20166;-82
2022/02/27 15:57:57;;;;;;;9.73;4.60;;;11.90;1.00;;;;;;2619120;47;20139;-81
2022/02/27 16:00:23;;;;;;;4.50;4.10;;;11.80;1.00;;;;;;2617618;54;20243;-79
2022/02/27 16:03:13;;;;;;;60.57;55.23;;;11.70;1.00;;;;;;2615495;54;20397;-78
2022/02/27 16:05:40;;;;;;;35.53;32.13;;;11.40;1.00;;;;;;2612824;47;20448;-79
2022/02/27 16:08:05;;;;;;;40.30;34.37;;;11.30;1.00;;;;;;2613654;47;20419;-79
2022/02/27 16:10:32;;;;;;;17.67;15.97;;;11.00;1.00;;;;;;2613815;54;20453;-79
2022/02/27 16:13:00;;;;;;;27.87;25.23;;;11.20;1.00;;;;;;2613267;54;20395;-78
2022/02/27 16:15:55;;;;;;;8.90;8.10;;;11.20;1.00;;;;;;2613465;54;20487;-78
2022/02/27 16:18:23;;;;;;;6.10;5.50;;;11.00;1.00;;;;;;2612564;54;21021;-78
2022/02/27 16:20:51;;;;;;;7.47;6.70;;;11.20;1.00;;;;;;2614136;54;20419;-78
2022/02/27 16:23:18;;;;;;;4.10;3.70;;;10.80;1.00;;;;;;2614368;54;20426;-79
2022/02/27 16:25:44;;;;;;;12.70;10.80;;;10.80;1.00;;;;;;2614031;47;20429;-79
2022/02/27 16:28:11;;;;;;;22.43;19.77;;;10.70;1.00;;;;;;2612678;47;21046;-78
2022/02/27 16:30:38;;;;;;;5.13;4.80;;;11.00;1.00;;;;;;2613383;47;21226;-78
2022/02/27 16:33:05;;;;;;;9.40;5.20;;;10.90;1.00;;;;;;2612559;47;20435;-77
2022/02/27 16:35:31;;;;;;;29.53;25.40;;;10.80;1.00;;;;;;2613108;47;20539;-78
2022/02/27 16:37:57;;;;;;;13.00;10.93;;;10.60;1.00;;;;;;2615296;54;20442;-77
2022/02/27 16:40:28;;;;;;;16.73;15.10;;;10.50;1.00;;;;;;2614516;47;20167;-78
2022/02/27 16:42:56;;;;;;;10.00;9.13;;;10.70;1.00;;;;;;2614313;39;21595;-81
2022/02/27 16:45:23;;;;;;;14.50;10.50;;;10.50;1.00;;;;;;2659488;36;20527;-79
2022/02/27 16:47:49;;;;;;;5.20;3.93;;;10.30;1.00;;;;;;2612408;39;20786;-79
2022/02/27 16:50:16;;;;;;;7.60;6.40;;;10.10;1.00;;;;;;2612750;47;20610;-79
2022/02/27 16:52:42;;;;;;;41.77;24.23;;;9.80;1.00;;;;;;2613863;47;20435;-78
2022/02/27 16:55:09;;;;;;;46.00;30.60;;;9.40;1.00;;;;;;2612769;54;21000;-77
2022/02/27 16:57:35;;;;;;;6.23;5.60;;;9.30;1.00;;;;;;2614377;39;20963;-78
2022/02/27 17:00:08;;;;;;;3.87;3.60;;;9.20;1.00;;;;;;2613795;54;20423;-78
2022/02/27 17:02:34;;;;;;;6.83;3.50;;;9.10;1.00;;;;;;2614425;39;20518;-76
2022/02/27 17:05:01;;;;;;;4.13;3.60;;;9.00;1.00;;;;;;2613331;54;20526;-78
2022/02/27 17:07:29;;;;;;;5.03;4.53;;;8.90;1.00;;;;;;2613370;47;21091;-78
2022/02/27 17:09:54;;;;;;;4.50;4.00;;;8.90;1.00;;;;;;2613134;54;20982;-78
2022/02/27 17:12:23;;;;;;;6.83;4.40;;;8.70;1.00;;;;;;2614451;47;20416;-79
2022/02/27 17:15:13;;;;;;;4.13;3.73;;;8.60;1.00;;;;;;2611819;47;20699;-79
2022/02/27 17:17:40;;;;;;;3.90;3.60;;;8.50;1.60;;;;;;2611197;47;21262;-79
2022/02/27 17:20:10;;;;;;;5.50;3.93;;;8.30;1.30;;;;;;2611618;54;21089;-78
2022/02/27 17:22:39;;;;;;;6.37;4.00;;;8.30;1.20;;;;;;2612017;54;20526;-79
2022/02/27 17:25:07;;;;;;;17.77;4.70;;;8.20;1.90;;;;;;2610866;54;20457;-76
2022/02/27 17:27:33;;;;;;;5.10;4.60;;;8.20;2.20;;;;;;2611449;54;20503;-80
2022/02/27 17:29:59;;;;;;;4.07;3.77;;;8.00;2.50;;;;;;2611661;47;20407;-79
2022/02/27 17:32:26;;;;;;;7.03;5.27;;;8.00;2.70;;;;;;2612006;47;20537;-78
2022/02/27 17:34:52;;;;;;;7.10;4.73;;;8.00;3.10;;;;;;2612828;54;20415;-79
2022/02/27 17:37:19;;;;;;;5.00;4.57;;;7.90;3.30;;;;;;2611158;54;20411;-78
2022/02/27 17:39:45;;;;;;;5.70;5.20;;;7.80;3.90;;;;;;2611418;54;20402;-79
2022/02/27 17:42:11;;;;;;;4.40;4.10;;;7.80;4.10;;;;;;2612193;31;20898;-79
2022/02/27 17:45:04;;;;;;;5.93;5.43;;;7.70;4.50;;;;;;2613957;39;20850;-77
2022/02/27 17:47:31;;;;;;;5.13;4.70;;;7.70;5.80;;;;;;2613712;54;20153;-77
2022/02/27 17:49:58;;;;;;;7.10;5.33;;;7.70;6.90;;;;;;2614434;39;20814;-79
2022/02/27 17:52:26;;;;;;;9.00;4.70;;;7.70;8.40;;;;;;2614235;54;20407;-79
2022/02/27 17:54:53;;;;;;;7.90;7.10;;;7.60;7.70;;;;;;2611783;39;20982;-77
2022/02/27 17:57:20;;;;;;;5.47;4.97;;;7.60;9.00;;;;;;2613338;39;20812;-79
2022/02/27 17:59:47;;;;;;;5.90;5.30;;;7.50;9.60;;;;;;2611136;54;20407;-79
2022/02/27 18:02:14;;;;;;;6.90;5.17;;;7.30;10.90;;;;;;2613009;31;20897;-78
2022/02/27 18:05:06;;;;;;;5.60;4.90;;;7.20;17.50;;;;;;2612097;47;20517;-78
2022/02/27 18:07:33;;;;;;;5.37;4.40;;;7.10;20.50;;;;;;2612685;54;20414;-78
2022/02/27 18:09:59;;;;;;;8.17;4.90;;;6.90;29.40;;;;;;2612365;47;20427;-77
2022/02/27 18:12:27;;;;;;;6.40;5.90;;;6.60;35.70;;;;;;2613029;39;20991;-78
2022/02/27 18:15:19;;;;;;;8.53;5.33;;;6.40;44.70;;;;;;2613622;39;20859;-78
2022/02/27 18:17:46;;;;;;;7.90;5.50;;;6.30;51.60;;;;;;2612903;54;20511;-79
2022/02/27 18:20:13;;;;;;;11.53;5.47;;;6.20;49.00;;;;;;2613185;46;20418;-78
2022/02/27 18:22:41;;;;;;;5.53;4.50;;;6.20;44.70;;;;;;2612236;47;20470;-78
2022/02/27 18:25:07;;;;;;;5.20;4.53;;;6.10;49.40;;;;;;2613371;54;20418;-79
2022/02/27 18:27:33;;;;;;;6.47;5.33;;;5.90;61.20;;;;;;2614096;46;20984;-79
2022/02/27 18:29:59;;;;;;;8.30;5.80;;;5.70;66.80;;;;;;2612711;47;20419;-78
2022/02/27 18:32:26;;;;;;;7.63;5.37;;;5.70;65.80;;;;;;2612896;54;20434;-78
2022/02/27 18:34:51;;;;;;;7.77;5.97;;;5.60;65.10;;;;;;2612961;54;20594;-79
2022/02/27 18:37:17;;;;;;;7.23;5.40;;;5.50;65.60;;;;;;2613511;47;20470;-78
2022/02/27 18:40:12;;;;;;;7.30;6.43;;;5.50;61.70;;;;;;2613302;39;20768;-77
2022/02/27 18:42:42;;;;;;;11.30;6.40;;;5.40;73.50;;;;;;2613325;47;20512;-77
2022/02/27 18:45:09;;;;;;;5.00;4.50;;;5.20;81.80;;;;;;2615809;54;20418;-77
2022/02/27 18:47:36;;;;;;;7.03;5.93;;;5.30;83.40;;;;;;2631856;36;20473;-78
2022/02/27 18:50:04;;;;;;;8.50;6.30;;;5.30;83.60;;;;;;2614160;39;20850;-79
2022/02/27 18:52:31;;;;;;;9.00;6.20;;;5.20;74.40;;;;;;2614254;54;20459;-78
2022/02/27 18:54:58;;;;;;;8.80;6.83;;;5.10;76.40;;;;;;2614176;47;20472;-78
2022/02/27 18:57:24;;;;;;;8.17;6.50;;;5.10;71.20;;;;;;2613696;47;20439;-78
2022/02/27 18:59:50;;;;;;;7.40;5.33;;;5.20;67.70;;;;;;2614149;47;20408;-80
2022/02/27 19:02:16;;;;;;;7.43;5.27;;;5.30;66.00;;;;;;2614884;54;20419;-77
2022/02/27 19:04:43;;;;;;;6.20;4.83;;;5.40;56.70;;;;;;2614959;39;20984;-78
2022/02/27 19:07:09;;;;;;;10.27;6.17;;;5.60;51.20;;;;;;2614729;47;20439;-78
2022/02/27 19:09:37;;;;;;;4.73;4.30;;;5.50;49.90;;;;;;2613798;54;21031;-77
2022/02/27 19:12:05;;;;;;;8.07;5.07;;;5.60;46.70;;;;;;2613788;54;20429;-78
2022/02/27 19:14:59;;;;;;;4.90;4.47;;;5.60;45.90;;;;;;2613613;54;20424;-79
2022/02/27 19:17:25;;;;;;;4.53;4.23;;;5.70;44.80;;;;;;2612948;54;20406;-78
2022/02/27 19:19:54;;;;;;;4.97;4.23;;;5.70;43.60;;;;;;2613689;54;20411;-78
2022/02/27 19:22:20;;;;;;;4.90;4.50;;;5.70;43.10;;;;;;2613395;47;20446;-79
2022/02/27 19:24:46;;;;;;;5.10;4.57;;;5.70;43.20;;;;;;2613614;54;20507;-79
2022/02/27 19:27:13;;;;;;;8.83;4.60;;;5.70;42.40;;;;;;2615060;47;20462;-78
2022/02/27 19:29:40;;;;;;;4.80;4.43;;;5.80;39.80;;;;;;2614606;39;20844;-80
2022/02/27 19:32:07;;;;;;;7.13;4.70;;;5.80;39.10;;;;;;2614162;39;20837;-79
2022/02/27 19:34:34;;;;;;;5.80;4.30;;;5.70;40.50;;;;;;2613340;54;20407;-79
2022/02/27 19:37:00;;;;;;;6.73;5.00;;;5.70;40.80;;;;;;2613639;54;20467;-78
2022/02/27 19:39:27;;;;;;;4.30;3.50;;;5.70;40.40;;;;;;2612750;54;20409;-78
2022/02/27 19:41:52;;;;;;;8.80;5.10;;;5.60;42.30;;;;;;2612888;47;20444;-78
2022/02/27 19:44:19;;;;;;;4.63;4.20;;;5.70;41.90;;;;;;2614510;54;21270;-78
2022/02/27 19:46:45;;;;;;;3.33;3.03;;;5.70;42.30;;;;;;2614507;39;20585;-78
2022/02/27 19:49:11;;;;;;;5.47;4.17;;;5.60;43.40;;;;;;2611971;47;20955;-78
2022/02/27 19:51:38;;;;;;;6.60;4.80;;;5.70;42.40;;;;;;2611360;54;20527;-78
2022/02/27 19:54:05;;;;;;;13.10;5.50;;;5.70;42.80;;;;;;2612661;54;20404;-77
2022/02/27 19:56:31;;;;;;;8.27;4.03;;;5.70;44.10;;;;;;2613034;54;21037;-78
2022/02/27 19:58:59;;;;;;;6.00;4.03;;;5.70;45.70;;;;;;2612962;54;20981;-79
2022/02/27 20:01:26;;;;;;;8.20;3.80;;;5.70;40.90;;;;;;2612668;54;20411;-80
2022/02/27 20:03:53;;;;;;;6.00;4.50;;;5.60;43.80;;;;;;2615756;54;20547;-78
2022/02/27 20:06:21;;;;;;;12.57;5.10;;;5.60;45.10;;;;;;2613659;54;20427;-79
2022/02/27 20:11:56;;;;;;;5.60;4.47;;;5.50;45.30;;;;;;2613275;54;20606;-79
2022/02/27 20:14:24;;;;;;;8.20;4.60;;;5.50;45.50;;;;;;2613989;54;20400;-79
2022/02/27 20:16:50;;;;;;;5.33;4.40;;;5.50;44.60;;;;;;2613243;47;20219;-79
2022/02/27 20:19:16;;;;;;;8.17;4.80;;;5.50;43.80;;;;;;2613184;54;20980;-78
2022/02/27 20:21:44;;;;;;;8.20;4.60;;;5.50;45.20;;;;;;2614879;47;20433;-79
2022/02/27 20:24:10;;;;;;;4.40;4.00;;;5.50;43.10;;;;;;2631833;36;20323;-77
2022/02/27 20:26:37;;;;;;;4.70;4.13;;;5.50;43.90;;;;;;2613591;47;20423;-78
2022/02/27 20:29:05;;;;;;;4.27;3.77;;;5.50;43.10;;;;;;2614852;54;20408;-78
2022/02/27 20:31:58;;;;;;;7.00;4.17;;;5.60;42.70;;;;;;2614783;46;20539;-77
2022/02/27 20:34:24;;;;;;;11.73;9.23;;;5.70;41.00;;;;;;2615356;51;20416;-79
2022/02/27 20:36:50;;;;;;;9.03;4.93;;;5.70;41.60;;;;;;2614254;54;20957;-78
2022/02/27 20:39:20;;;;;;;6.00;5.10;;;5.60;41.40;;;;;;2614490;47;20448;-77
2022/02/27 20:41:48;;;;;;;4.20;3.80;;;5.60;43.60;;;;;;2614524;54;20459;-78
2022/02/27 20:44:14;;;;;;;8.80;4.40;;;5.50;44.80;;;;;;2613154;47;20543;-78
2022/02/27 20:46:40;;;;;;;5.43;4.73;;;5.40;48.50;;;;;;2613082;54;20400;-78
2022/02/27 20:49:06;;;;;;;6.90;4.60;;;5.40;47.90;;;;;;2614190;54;20586;-77
2022/02/27 20:51:36;;;;;;;9.03;5.00;;;5.50;47.40;;;;;;2613250;54;20936;-78
2022/02/27 20:54:04;;;;;;;5.40;4.90;;;5.50;46.80;;;;;;2613967;54;20606;-78
2022/02/27 20:56:31;;;;;;;5.90;4.50;;;5.50;46.10;;;;;;2614384;54;20427;-77
2022/02/27 20:58:57;;;;;;;4.33;3.77;;;5.50;43.80;;;;;;2614319;54;20997;-77
2022/02/27 21:01:27;;;;;;;6.43;4.13;;;5.50;44.70;;;;;;2614622;47;20481;-77
2022/02/27 21:03:54;;;;;;;4.60;4.20;;;5.70;41.50;;;;;;2614319;54;20448;-78
2022/02/27 21:06:21;;;;;;;6.80;4.50;;;5.60;41.40;;;;;;2614560;47;20431;-79
2022/02/27 21:09:13;;;;;;;7.13;3.87;;;5.60;38.60;;;;;;2614865;46;20456;-78
2022/02/27 21:11:39;;;;;;;4.77;4.07;;;5.70;37.90;;;;;;2632901;36;20474;-77
2022/02/27 21:14:06;;;;;;;4.03;3.73;;;5.70;38.00;;;;;;2612575;54;20455;-78
2022/02/27 21:16:32;;;;;;;5.07;4.67;;;5.90;35.70;;;;;;2613631;54;20215;-80
2022/02/27 21:18:59;;;;;;;4.50;3.80;;;5.80;35.90;;;;;;2613851;54;20444;-79
2022/02/27 21:21:26;;;;;;;7.13;4.83;;;5.80;36.50;;;;;;2615022;39;20808;-79
2022/02/27 21:23:54;;;;;;;12.13;5.80;;;5.70;37.20;;;;;;2613747;47;20435;-79
2022/02/27 21:26:22;;;;;;;12.23;5.07;;;5.70;37.10;;;;;;2614087;54;20414;-79
2022/02/27 21:28:49;;;;;;;5.47;4.43;;;5.70;37.70;;;;;;2614563;54;20452;-79
2022/02/27 21:31:15;;;;;;;3.67;3.03;;;5.70;36.80;;;;;;2613167;54;20526;-79
2022/02/27 21:34:07;;;;;;;5.13;4.10;;;5.60;36.20;;;;;;2613543;54;20507;-79
2022/02/27 21:36:34;;;;;;;11.63;4.90;;;5.60;36.90;;;;;;2615205;31;20858;-79
2022/02/27 21:39:03;;;;;;;5.03;3.80;;;5.60;36.20;;;;;;2614458;39;20918;-79
2022/02/27 21:41:29;;;;;;;6.40;5.13;;;5.70;33.90;;;;;;2613532;54;20459;-79
2022/02/27 21:43:55;;;;;;;4.17;3.53;;;5.70;31.00;;;;;;2614815;39;20859;-81
2022/02/27 21:46:23;;;;;;;5.90;4.70;;;5.60;33.60;;;;;;2614167;54;20441;-79
2022/02/27 21:49:18;;;;;;;5.73;5.23;;;5.60;35.40;;;;;;2613704;51;20524;-78
2022/02/27 21:51:44;;;;;;;5.90;4.90;;;5.60;36.90;;;;;;2613966;47;20852;-78
2022/02/27 21:54:12;;;;;;;6.20;4.63;;;5.50;37.40;;;;;;2614878;47;20457;-78
2022/02/27 21:56:38;;;;;;;6.40;4.47;;;5.50;40.90;;;;;;2613646;47;20422;-78
2022/02/27 21:59:06;;;;;;;7.50;4.40;;;5.50;38.40;;;;;;2614258;54;20420;-77
2022/02/27 22:01:32;;;;;;;4.77;4.10;;;5.40;38.80;;;;;;2613565;54;20503;-78
2022/02/27 22:04:01;;;;;;;4.83;4.37;;;5.30;39.60;;;;;;2613759;47;20463;-77
2022/02/27 22:06:33;;;;;;;6.40;4.97;;;5.40;38.40;;;;;;2614822;39;20881;-77
2022/02/27 22:09:10;;;;;;;7.37;4.63;;;5.40;34.00;;;;;;2613885;39;20760;-78
2022/02/27 22:11:37;;;;;;;4.80;4.37;;;5.40;30.40;;;;;;2614571;54;20991;-76
2022/02/27 22:14:33;;;;;;;4.00;3.60;;;5.60;28.80;;;;;;2612656;39;21064;-79
2022/02/27 22:16:59;;;;;;;4.17;3.80;;;5.50;27.00;;;;;;2612592;47;20419;-76
2022/02/27 22:19:27;;;;;;;5.43;4.90;;;5.50;26.80;;;;;;2612522;47;20468;-75
2022/02/27 22:21:54;;;;;;;4.90;4.13;;;5.60;25.90;;;;;;2614331;47;20523;-76
2022/02/27 22:24:20;;;;;;;5.73;4.23;;;5.60;23.20;;;;;;2614024;47;20438;-78
2022/02/27 22:26:46;;;;;;;8.87;5.27;;;5.70;22.40;;;;;;2613924;54;20514;-77
2022/02/27 22:29:13;;;;;;;4.00;3.53;;;5.70;22.70;;;;;;2614174;54;20419;-76
2022/02/27 22:31:43;;;;;;;5.67;3.87;;;;;;;;;;2613927;46;20440;-77
2022/02/27 22:34:10;;;;;;;4.50;4.03;;;;;;;;;;2613071;47;20416;-76
2022/02/27 22:36:38;;;;;;;6.13;4.90;;;;;;;;;;2613819;47;20549;-77
2022/02/27 22:39:07;;;;;;;4.80;4.30;;;;;;;;;;2613532;47;20427;-77
2022/02/27 22:41:34;;;;;;;9.67;4.63;;;;;;;;;;2614278;47;21403;-78
2022/02/27 22:44:00;;;;;;;7.20;4.30;;;5.70;22.20;;;;;;2613722;54;20428;-76
2022/02/27 22:46:55;;;;;;;4.60;4.20;;;5.70;33.80;;;;;;2614810;54;20412;-77
2022/02/27 22:49:20;;;;;;;4.70;4.30;;;5.70;22.80;;;;;;2615557;54;20495;-77
2022/02/27 22:51:47;;;;;;;6.17;4.17;;;5.70;22.50;;;;;;2616412;46;20419;-76
2022/02/27 22:54:45;;;;;;;4.60;4.20;;;5.70;22.30;;;;;;2617042;54;20416;-77
2022/02/27 22:57:13;;;;;;;6.87;3.93;;;5.70;21.20;;;;;;2616712;47;20434;-77
2022/02/27 22:59:43;;;;;;;4.87;4.27;;;5.80;20.60;;;;;;2617938;47;20423;-77
2022/02/27 23:02:10;;;;;;;5.97;5.37;;;5.80;20.60;;;;;;2615817;54;20964;-77
2022/02/27 23:08:27;;;;;;;5.43;4.93;;;5.80;20.00;;;;;;2618117;54;20472;-77
2022/02/27 23:10:09;;;;;;;6.37;4.73;;;5.80;21.40;;;;;;2618080;46;20976;-77
2022/02/27 23:12:35;;;;;;;7.70;5.50;;;5.80;20.50;;;;;;2617410;47;20427;-77
2022/02/27 23:15:27;;;;;;;6.60;4.87;;;5.70;20.80;;;;;;2616623;54;20939;-78
2022/02/27 23:17:55;;;;;;;7.13;4.33;;;;;;;;;;2613321;54;20523;-77
2022/02/27 23:20:21;;;;;;;4.67;4.23;;;;;;;;;;2611863;54;20418;-78
2022/02/27 23:22:47;;;;;;;5.50;5.00;;;5.80;21.20;;;;;;2613673;54;21007;-77
2022/02/27 23:25:13;;;;;;;5.63;5.13;;;5.90;20.10;;;;;;2614710;54;20408;-82
2022/02/27 23:27:39;;;;;;;5.33;4.63;;;5.80;19.10;;;;;;2615005;39;20948;-78
2022/02/27 23:30:32;;;;;;;6.57;5.07;;;5.80;20.10;;;;;;2615762;39;20558;-77
2022/02/27 23:32:58;;;;;;;7.60;4.80;;;5.80;20.80;;;;;;2614705;39;20829;-80
2022/02/27 23:35:25;;;;;;;5.93;5.33;;;5.80;20.40;;;;;;2614582;54;20559;-77
2022/02/27 23:37:51;;;;;;;6.17;4.80;;;5.70;22.40;;;;;;2614801;47;20449;-76
2022/02/27 23:40:20;;;;;;;7.63;5.33;;;5.60;23.60;;;;;;2615103;54;20439;-77
2022/02/27 23:42:46;;;;;;;5.37;4.83;;;5.60;22.70;;;;;;2614161;47;20459;-76
2022/02/27 23:45:13;;;;;;;9.43;5.07;;;5.70;21.70;;;;;;2615525;54;20427;-77
2022/02/27 23:47:41;;;;;;;7.93;4.73;;;5.70;20.60;;;;;;2614803;54;20480;-77
2022/02/27 23:50:11;;;;;;;13.33;5.93;;;5.70;20.70;;;;;;2614496;54;20962;-76
2022/02/27 23:52:37;;;;;;;5.90;5.30;;;5.70;21.40;;;;;;2614436;54;20420;-76
2022/02/27 23:55:04;;;;;;;4.17;3.77;;;5.60;21.10;;;;;;2615139;47;20639;-77
2022/02/27 23:57:30;;;;;;;5.93;5.33;;;5.60;20.80;;;;;;2614666;54;20408;-78
